Bonito, Brazil
Current Conditions -  °F | °C
As of 4:00 AM on Friday 28 Nov 2014 (Local Time) from SBCG Reporting Station
Few Clouds Few Clouds  
Wind Chill: 72°   Ceiling: Unl
Heat Index: 72°   Visibility: 6mi
Dew Point: 70°   Wind: 6mph
Humidity: 94%   Direction: 30°NNE
Pressure: 29.85"   Gusts: NA
Location:  21.12°S, 56.48°W
Report Text: SBCG 280700Z 03005KT 9999 FEW040 FEW045TCU 22/21 Q1011
Loading
Personal Weather Stations






























Interactive Weather Map New forecast layout! Learn more

10-Day Weather Forecast

Advertisements
Track Severe Weather on mobile